createdAt,value
2018-05-25T00:02:11.106Z,102187.17
2018-05-25T00:04:37.960Z,102186.92
2018-05-25T00:07:04.772Z,102189.51
2018-05-25T00:09:32.417Z,102181.75
2018-05-25T00:11:59.196Z,102184.70
2018-05-25T00:14:26.707Z,102191.64
2018-05-25T00:16:53.604Z,102193.38
2018-05-25T00:19:21.128Z,102191.67
2018-05-25T00:21:47.899Z,102187.81
2018-05-25T00:24:15.469Z,102183.65
2018-05-25T00:26:42.272Z,102184.41
2018-05-25T00:29:09.175Z,102174.15
2018-05-25T00:31:36.038Z,102190.09
2018-05-25T00:34:02.820Z,102184.66
2018-05-25T00:36:29.592Z,102183.98
2018-05-25T00:38:56.409Z,102185.98
2018-05-25T00:41:23.269Z,102181.53
2018-05-25T00:43:50.787Z,102178.36
2018-05-25T00:46:19.437Z,102175.76
2018-05-25T00:48:46.232Z,102172.48
2018-05-25T00:51:13.003Z,102180.08
2018-05-25T00:53:40.005Z,102177.98
2018-05-25T00:56:06.844Z,102173.75
2018-05-25T00:58:33.636Z,102180.06
2018-05-25T01:01:01.315Z,102167.45
2018-05-25T01:03:28.355Z,102173.03
2018-05-25T01:05:55.518Z,102174.57
2018-05-25T01:08:22.354Z,102179.66
2018-05-25T01:10:49.128Z,102175.07
2018-05-25T01:13:15.912Z,102174.41
2018-05-25T01:15:43.121Z,102174.38
2018-05-25T01:18:10.056Z,102178.85
2018-05-25T01:20:36.872Z,102178.63
2018-05-25T01:23:04.456Z,102176.56
2018-05-25T01:25:31.247Z,102173.72
2018-05-25T01:27:58.046Z,102174.17
2018-05-25T01:30:25.153Z,102171.77
2018-05-25T01:32:52.665Z,102173.67
2018-05-25T01:35:19.444Z,102169.67
2018-05-25T01:37:46.288Z,102167.11
2018-05-25T01:40:13.081Z,102163.92
2018-05-25T01:42:39.916Z,102160.97
2018-05-25T01:45:12.581Z,102168.98
2018-05-25T01:47:40.108Z,102161.31
2018-05-25T01:50:07.042Z,102163.58
2018-05-25T01:52:33.829Z,102162.75
2018-05-25T01:55:00.657Z,102167.95
2018-05-25T01:57:27.492Z,102164.10
2018-05-25T01:59:54.267Z,102163.92
2018-05-25T02:02:21.068Z,102167.33
2018-05-25T02:04:47.896Z,102170.00
2018-05-25T02:07:15.504Z,102164.34
2018-05-25T02:09:43.023Z,102166.56
2018-05-25T02:12:09.948Z,102169.05
2018-05-25T02:14:36.735Z,102156.64
2018-05-25T02:17:03.514Z,102167.58
2018-05-25T02:19:30.421Z,102165.34
2018-05-25T02:21:57.209Z,102159.09
2018-05-25T02:24:23.993Z,102163.45
2018-05-25T02:26:50.827Z,102162.86
2018-05-25T02:29:17.611Z,102157.76
2018-05-25T02:31:44.481Z,102162.13
2018-05-25T02:34:11.317Z,102160.78
2018-05-25T02:36:38.123Z,102153.89
2018-05-25T02:39:04.992Z,102157.52
2018-05-25T02:41:31.899Z,102152.11
2018-05-25T02:43:58.737Z,102160.95
2018-05-25T02:46:25.523Z,102165.42
2018-05-25T02:48:52.385Z,102165.72
2018-05-25T02:51:19.178Z,102157.95
2018-05-25T02:53:45.989Z,102162.66
2018-05-25T02:56:13.706Z,102155.94
2018-05-25T02:58:41.211Z,102161.02
2018-05-25T03:01:08.012Z,102156.01
2018-05-25T03:03:35.571Z,102158.13
2018-05-25T03:06:03.112Z,102160.84
2018-05-25T03:08:29.971Z,102162.54
2018-05-25T03:10:56.947Z,102161.67
2018-05-25T03:13:23.735Z,102160.09
2018-05-25T03:15:50.538Z,102166.43
2018-05-25T03:18:17.372Z,102163.29
2018-05-25T03:20:44.208Z,102168.82
2018-05-25T03:23:11.113Z,102166.83
2018-05-25T03:25:37.923Z,102159.25
2018-05-25T03:28:04.757Z,102161.05
2018-05-25T03:30:31.539Z,102170.59
2018-05-25T03:32:58.448Z,102171.17
2018-05-25T03:35:31.413Z,102172.53
2018-05-25T03:37:59.117Z,102173.73
2018-05-25T03:40:25.896Z,102170.36
2018-05-25T03:42:52.715Z,102169.75
2018-05-25T03:45:25.573Z,102171.48
2018-05-25T03:47:52.349Z,102172.40
2018-05-25T03:50:19.119Z,102174.88
2018-05-25T03:52:46.853Z,102175.52
2018-05-25T03:55:14.373Z,102177.81
2018-05-25T03:57:41.212Z,102177.63
2018-05-25T04:00:26.473Z,102181.69
2018-05-25T04:02:53.992Z,102179.36
2018-05-25T04:05:20.780Z,102177.98
2018-05-25T04:07:48.567Z,102179.73
2018-05-25T04:10:15.359Z,102179.03
2018-05-25T04:12:42.137Z,102186.53
2018-05-25T04:15:15.232Z,102183.17
2018-05-25T04:17:42.240Z,102185.92
2018-05-25T04:20:09.084Z,102182.53
2018-05-25T04:22:35.895Z,102180.81
2018-05-25T04:25:02.820Z,102180.48
2018-05-25T04:27:29.827Z,102180.51
2018-05-25T04:29:56.645Z,102190.00
2018-05-25T04:32:24.215Z,102189.86
2018-05-25T04:34:51.033Z,102184.22
2018-05-25T04:37:17.856Z,102193.04
2018-05-25T04:39:44.904Z,102189.29
2018-05-25T04:42:11.683Z,102182.15
2018-05-25T04:44:39.308Z,102185.10
2018-05-25T04:47:06.139Z,102184.80
2018-05-25T04:49:33.647Z,102181.45
2018-05-25T04:52:00.616Z,102181.12
2018-05-25T04:54:27.428Z,102184.70
2018-05-25T04:56:54.262Z,102176.05
2018-05-25T04:59:21.353Z,102175.02
2018-05-25T05:01:48.149Z,102178.11
2018-05-25T05:04:14.929Z,102175.05
2018-05-25T05:06:41.773Z,102176.69
2018-05-25T05:09:08.599Z,102183.80
2018-05-25T05:11:35.373Z,102189.13
2018-05-25T05:14:02.191Z,102189.40
2018-05-25T05:16:29.040Z,102188.69
2018-05-25T05:18:55.844Z,102192.77
2018-05-25T05:21:22.724Z,102192.05
2018-05-25T05:23:49.516Z,102192.47
2018-05-25T05:26:17.035Z,102188.50
2018-05-25T05:28:43.888Z,102183.13
2018-05-25T05:31:10.702Z,102177.89
2018-05-25T05:33:38.304Z,102175.97
2018-05-25T05:36:05.140Z,102177.56
2018-05-25T05:38:31.921Z,102177.88
2018-05-25T05:40:58.734Z,102169.06
2018-05-25T05:43:26.308Z,102168.69
2018-05-25T05:45:53.156Z,102177.80
2018-05-25T05:48:20.672Z,102182.03
2018-05-25T05:50:47.492Z,102189.17
2018-05-25T05:53:14.264Z,102186.18
2018-05-25T05:55:41.040Z,102189.78
2018-05-25T05:58:07.938Z,102185.02
2018-05-25T06:00:34.760Z,102189.92
2018-05-25T06:03:01.549Z,102192.89
2018-05-25T06:05:28.701Z,102194.16
2018-05-25T06:07:55.487Z,102186.31
2018-05-25T06:10:22.331Z,102183.59
2018-05-25T06:12:49.151Z,102183.52
2018-05-25T06:15:21.909Z,102196.69
2018-05-25T06:17:48.799Z,102198.44
2018-05-25T06:20:15.892Z,102196.45
2018-05-25T06:22:43.466Z,102197.56
2018-05-25T06:25:10.241Z,102194.38
2018-05-25T06:27:37.172Z,102192.27
2018-05-25T06:30:04.744Z,102190.90
2018-05-25T06:32:32.265Z,102180.09
2018-05-25T06:34:59.147Z,102191.86
2018-05-25T06:37:26.675Z,102188.81
2018-05-25T06:39:53.468Z,102188.02
2018-05-25T06:42:20.285Z,102191.44
2018-05-25T06:44:47.813Z,102186.77
2018-05-25T06:47:14.670Z,102188.59
2018-05-25T06:49:41.521Z,102189.91
2018-05-25T06:52:08.315Z,102192.75
2018-05-25T06:54:35.101Z,102194.09
2018-05-25T06:57:01.940Z,102197.84
2018-05-25T06:59:28.792Z,102194.02
2018-05-25T07:01:55.579Z,102199.08
2018-05-25T07:04:22.407Z,102203.72
2018-05-25T07:06:49.924Z,102206.86
2018-05-25T07:09:16.709Z,102208.05
2018-05-25T07:11:44.369Z,102207.03
2018-05-25T07:14:11.887Z,102206.55
2018-05-25T07:16:38.676Z,102203.89
2018-05-25T07:19:06.440Z,102198.77
2018-05-25T07:21:33.236Z,102197.14
2018-05-25T07:24:00.804Z,102204.61
2018-05-25T07:26:27.769Z,102207.48
2018-05-25T07:28:54.561Z,102210.06
2018-05-25T07:31:21.348Z,102196.88
2018-05-25T07:33:48.316Z,102197.80
2018-05-25T07:36:15.148Z,102205.53
2018-05-25T07:38:42.336Z,102204.65
2018-05-25T07:41:09.257Z,102204.97
2018-05-25T07:43:36.786Z,102203.82
2018-05-25T07:46:03.564Z,102198.27
2018-05-25T07:48:30.472Z,102196.96
2018-05-25T07:50:57.251Z,102201.22
2018-05-25T07:53:24.772Z,102202.63
2018-05-25T07:55:51.592Z,102194.62
2018-05-25T07:58:18.372Z,102197.28
2018-05-25T08:00:45.199Z,102193.75
2018-05-25T08:03:12.108Z,102185.17
2018-05-25T08:05:38.891Z,102188.00
2018-05-25T08:08:05.669Z,102192.13
2018-05-25T08:10:33.244Z,102194.94
2018-05-25T08:13:00.081Z,102195.95
2018-05-25T08:15:27.629Z,102193.25
2018-05-25T08:17:54.590Z,102186.17
2018-05-25T08:20:21.408Z,102172.98
2018-05-25T08:22:48.201Z,102179.84
2018-05-25T08:25:15.113Z,102180.12
2018-05-25T08:27:42.644Z,102182.48
2018-05-25T08:30:09.441Z,102174.73
2018-05-25T08:32:36.272Z,102180.44
2018-05-25T08:35:03.113Z,102178.25
2018-05-25T08:37:29.956Z,102175.81
2018-05-25T08:39:57.917Z,102192.39
2018-05-25T08:42:25.454Z,102182.04
2018-05-25T08:44:52.239Z,102184.47
2018-05-25T08:47:19.060Z,102174.91
2018-05-25T08:49:45.896Z,102183.05
2018-05-25T08:52:12.677Z,102168.64
2018-05-25T08:54:39.523Z,102181.93
2018-05-25T08:57:06.307Z,102179.88
2018-05-25T08:59:33.089Z,102176.73
2018-05-25T09:01:59.984Z,102179.57
2018-05-25T09:04:26.769Z,102175.48
2018-05-25T09:06:54.291Z,102182.66
2018-05-25T09:09:21.269Z,102175.53
2018-05-25T09:11:47.915Z,102175.61
2018-05-25T09:14:14.756Z,102175.17
2018-05-25T09:16:42.498Z,102181.55
2018-05-25T09:19:09.326Z,102186.13
2018-05-25T09:21:36.950Z,102180.25
2018-05-25T09:24:03.898Z,102176.63
2018-05-25T09:26:30.741Z,102175.09
2018-05-25T09:28:57.535Z,102178.76
2018-05-25T09:31:24.366Z,102189.68
2018-05-25T09:33:51.160Z,102175.35
2018-05-25T09:36:18.207Z,102167.55
2018-05-25T09:38:45.211Z,102168.46
2018-05-25T09:41:11.984Z,102177.69
2018-05-25T09:43:39.501Z,102186.27
2018-05-25T09:46:06.348Z,102190.13
2018-05-25T09:48:33.137Z,102181.77
2018-05-25T09:50:59.972Z,102182.27
2018-05-25T09:53:27.532Z,102180.34
2018-05-25T09:55:55.048Z,102180.58
2018-05-25T09:58:21.821Z,102183.53
2018-05-25T10:00:48.643Z,102174.22
2018-05-25T10:03:15.531Z,102168.43
2018-05-25T10:05:43.067Z,102186.16
2018-05-25T10:08:09.873Z,102179.07
2018-05-25T10:10:36.710Z,102176.41
2018-05-25T10:13:03.593Z,102169.00
2018-05-25T10:15:37.323Z,102160.06
2018-05-25T10:18:04.879Z,102169.16
2018-05-25T10:20:31.696Z,102170.47
2018-05-25T10:22:58.685Z,102180.86
2018-05-25T10:25:25.495Z,102176.07
2018-05-25T10:27:52.351Z,102173.90
2018-05-25T10:30:19.179Z,102166.78
2018-05-25T10:32:46.192Z,102169.58
2018-05-25T10:35:12.980Z,102175.02
2018-05-25T10:37:39.820Z,102163.61
2018-05-25T10:40:06.725Z,102172.13
2018-05-25T10:42:33.521Z,102166.66
2018-05-25T10:45:01.319Z,102153.08
2018-05-25T10:47:28.093Z,102155.58
2018-05-25T10:49:54.892Z,102155.92
2018-05-25T10:52:21.788Z,102158.04
2018-05-25T10:54:48.588Z,102144.77
2018-05-25T10:57:15.396Z,102149.72
2018-05-25T10:59:42.377Z,102155.22
2018-05-25T11:02:09.156Z,102147.27
2018-05-25T11:04:36.720Z,102146.97
2018-05-25T11:07:03.713Z,102146.41
2018-05-25T11:09:31.229Z,102149.88
2018-05-25T11:11:58.008Z,102147.77
2018-05-25T11:14:25.877Z,102146.33
2018-05-25T11:16:52.709Z,102136.03
2018-05-25T11:19:19.492Z,102136.42
2018-05-25T11:21:46.353Z,102140.45
2018-05-25T11:24:13.150Z,102120.30
2018-05-25T11:26:40.663Z,102134.63
2018-05-25T11:29:08.290Z,102144.34
2018-05-25T11:31:35.089Z,102133.59
2018-05-25T11:34:01.883Z,102128.27
2018-05-25T11:36:28.706Z,102127.19
2018-05-25T11:38:56.328Z,102126.77
2018-05-25T11:41:23.907Z,102126.16
2018-05-25T11:43:50.912Z,102119.16
2018-05-25T11:46:24.550Z,102109.00
2018-05-25T11:48:51.385Z,102107.10
2018-05-25T11:51:18.244Z,102115.75
2018-05-25T11:53:45.073Z,102105.98
2018-05-25T11:56:11.876Z,102112.68
2018-05-25T11:58:38.787Z,102122.75
2018-05-25T12:01:05.584Z,102108.04
2018-05-25T12:03:32.375Z,102101.33
2018-05-25T12:05:59.427Z,102105.26
2018-05-25T12:08:26.976Z,102108.58
2018-05-25T12:10:53.761Z,102097.48
2018-05-25T12:13:20.695Z,102101.03
2018-05-25T12:15:53.544Z,102105.47
2018-05-25T12:18:20.436Z,102098.45
2018-05-25T12:20:47.221Z,102099.50
2018-05-25T12:23:14.012Z,102098.84
2018-05-25T12:25:42.192Z,102098.75
2018-05-25T12:28:09.042Z,102095.23
2018-05-25T12:30:35.919Z,102094.03
2018-05-25T12:33:02.769Z,102097.70
2018-05-25T12:35:29.559Z,102091.39
2018-05-25T12:37:57.083Z,102097.04
2018-05-25T12:40:24.056Z,102083.05
2018-05-25T12:42:50.920Z,102089.00
2018-05-25T12:45:17.705Z,102078.95
2018-05-25T12:47:44.517Z,102080.58
2018-05-25T12:50:11.338Z,102078.19
2018-05-25T12:52:38.896Z,102087.33
2018-05-25T12:55:06.123Z,102072.83
2018-05-25T12:57:32.909Z,102089.12
2018-05-25T12:59:59.702Z,102089.02
2018-05-25T13:02:26.558Z,102080.14
2018-05-25T13:04:53.351Z,102082.53
2018-05-25T13:07:20.235Z,102083.45
2018-05-25T13:09:47.104Z,102079.49
2018-05-25T13:12:14.628Z,102080.20
2018-05-25T13:14:41.406Z,102072.33
2018-05-25T13:17:08.972Z,102064.69
2018-05-25T13:19:35.824Z,102068.11
2018-05-25T13:22:03.419Z,102074.95
2018-05-25T13:24:30.263Z,102082.53
2018-05-25T13:26:57.828Z,102078.34
2018-05-25T13:29:24.603Z,102076.05
2018-05-25T13:31:51.555Z,102078.70
2018-05-25T13:34:19.168Z,102084.61
2018-05-25T13:36:46.220Z,102074.71
2018-05-25T13:39:13.063Z,102080.63
2018-05-25T13:41:39.831Z,102065.73
2018-05-25T13:44:06.671Z,102067.43
2018-05-25T13:46:33.492Z,102072.54
2018-05-25T13:49:00.285Z,102068.09
2018-05-25T13:51:27.070Z,102061.32
2018-05-25T13:53:54.061Z,102060.33
2018-05-25T13:56:20.892Z,102059.03
2018-05-25T13:58:47.667Z,102061.36
2018-05-25T14:01:14.584Z,102061.55
2018-05-25T14:03:41.361Z,102062.79
2018-05-25T14:06:08.896Z,102065.66
2018-05-25T14:08:35.790Z,102059.66
2018-05-25T14:11:02.575Z,102061.22
2018-05-25T14:13:29.368Z,102055.98
2018-05-25T14:16:02.221Z,102052.81
2018-05-25T14:18:29.005Z,102050.48
2018-05-25T14:20:55.844Z,102056.94
2018-05-25T14:23:22.679Z,102053.95
2018-05-25T14:25:49.472Z,102057.09
2018-05-25T14:28:16.280Z,102054.78
2018-05-25T14:30:43.118Z,102054.41
2018-05-25T14:33:09.958Z,102051.88
2018-05-25T14:35:36.750Z,102054.64
2018-05-25T14:38:03.616Z,102056.92
2018-05-25T14:40:30.416Z,102052.23
2018-05-25T14:42:57.224Z,102055.30
2018-05-25T14:45:24.117Z,102057.23
2018-05-25T14:47:50.948Z,102053.64
2018-05-25T14:50:17.732Z,102056.19
2018-05-25T14:52:44.555Z,102059.30
2018-05-25T14:55:11.462Z,102050.87
2018-05-25T14:57:38.314Z,102044.12
2018-05-25T15:00:05.207Z,102044.84
2018-05-25T15:02:32.027Z,102050.95
2018-05-25T15:04:59.584Z,102048.64
2018-05-25T15:07:26.417Z,102047.31
2018-05-25T15:09:54.001Z,102050.36
2018-05-25T15:12:20.799Z,102047.80
2018-05-25T15:14:47.632Z,102045.98
2018-05-25T15:17:14.412Z,102044.84
2018-05-25T15:19:41.371Z,102048.62
2018-05-25T15:22:08.432Z,102039.63
2018-05-25T15:24:35.240Z,102041.70
2018-05-25T15:27:02.020Z,102044.31
2018-05-25T15:29:28.857Z,102042.92
2018-05-25T15:31:56.454Z,102044.00
2018-05-25T15:34:23.251Z,102043.79
2018-05-25T15:36:50.089Z,102035.64
2018-05-25T15:39:16.883Z,102037.07
2018-05-25T15:41:44.658Z,102035.42
2018-05-25T15:44:11.587Z,102038.31
2018-05-25T15:46:38.445Z,102036.30
2018-05-25T15:49:05.977Z,102027.40
2018-05-25T15:51:32.805Z,102031.61
2018-05-25T15:53:59.608Z,102022.28
2018-05-25T15:56:26.528Z,102025.47
2018-05-25T15:58:53.549Z,102027.70
2018-05-25T16:01:20.348Z,102026.29
2018-05-25T16:03:47.139Z,102027.84
2018-05-25T16:06:13.973Z,102025.20
2018-05-25T16:08:41.090Z,102027.97
2018-05-25T16:11:08.678Z,102029.66
2018-05-25T16:13:35.521Z,102033.41
2018-05-25T16:16:08.261Z,102032.25
2018-05-25T16:18:35.093Z,102035.29
2018-05-25T16:21:02.689Z,102032.48
2018-05-25T16:23:29.552Z,102036.36
2018-05-25T16:25:56.352Z,102034.66
2018-05-25T16:28:23.429Z,102031.78
2018-05-25T16:30:50.319Z,102042.12
2018-05-25T16:33:17.093Z,102035.83
2018-05-25T16:35:43.988Z,102036.11
2018-05-25T16:38:10.785Z,102040.78
2018-05-25T16:40:37.565Z,102047.77
2018-05-25T16:43:04.513Z,102042.12
2018-05-25T16:45:31.329Z,102049.13
2018-05-25T16:47:58.280Z,102050.69
2018-05-25T16:50:25.113Z,102048.62
2018-05-25T16:52:51.926Z,102052.20
2018-05-25T16:55:18.724Z,102053.95
2018-05-25T16:57:45.680Z,102056.70
2018-05-25T17:00:12.525Z,102056.28
2018-05-25T17:02:39.317Z,102069.16
2018-05-25T17:05:06.257Z,102065.34
2018-05-25T17:07:33.009Z,102062.65
2018-05-25T17:09:59.797Z,102058.36
2018-05-25T17:12:26.691Z,102066.89
2018-05-25T17:14:53.491Z,102051.13
2018-05-25T17:17:20.283Z,102055.57
2018-05-25T17:19:47.122Z,102071.38
2018-05-25T17:22:13.906Z,102069.42
2018-05-25T17:24:40.759Z,102061.25
2018-05-25T17:27:07.739Z,102070.45
2018-05-25T17:29:35.285Z,102078.05
2018-05-25T17:32:02.072Z,102076.72
2018-05-25T17:34:29.046Z,102079.08
2018-05-25T17:36:56.661Z,102086.50
2018-05-25T17:39:24.194Z,102081.27
2018-05-25T17:41:51.016Z,102090.33
2018-05-25T17:44:17.851Z,102079.72
2018-05-25T17:46:46.080Z,102090.13
2018-05-25T17:49:15.142Z,102078.52
2018-05-25T17:51:43.958Z,102083.48
2018-05-25T17:54:12.624Z,102073.38
2018-05-25T17:56:41.313Z,102077.24
2018-05-25T17:59:10.435Z,102076.27
2018-05-25T18:01:37.752Z,102070.42
2018-05-25T18:04:04.584Z,102081.50
2018-05-25T18:06:31.409Z,102092.78
2018-05-25T18:08:58.204Z,102090.87
2018-05-25T18:11:25.004Z,102081.41
2018-05-25T18:13:51.884Z,102091.20
2018-05-25T18:16:18.671Z,102093.28
2018-05-25T18:18:45.461Z,102095.75
2018-05-25T18:21:12.405Z,102106.38
2018-05-25T18:23:39.185Z,102108.05
2018-05-25T18:26:06.075Z,102109.38
2018-05-25T18:28:32.913Z,102115.88
2018-05-25T18:30:59.713Z,102113.56
2018-05-25T18:33:27.481Z,102119.66
2018-05-25T18:35:55.045Z,102110.78
2018-05-25T18:38:21.897Z,102113.53
2018-05-25T18:40:48.688Z,102108.32
2018-05-25T18:43:15.534Z,102117.00
2018-05-25T18:45:42.320Z,102118.83
2018-05-25T18:48:09.867Z,102117.47
2018-05-25T18:50:36.788Z,102132.58
2018-05-25T18:53:03.622Z,102125.19
2018-05-25T18:55:30.440Z,102127.08
2018-05-25T18:57:57.294Z,102121.98
2018-05-25T19:00:24.645Z,102138.14
2018-05-25T19:02:51.716Z,102140.36
2018-05-25T19:05:18.557Z,102136.81
2018-05-25T19:07:45.335Z,102143.00
2018-05-25T19:10:12.348Z,102150.01
2018-05-25T19:12:39.324Z,102156.82
2018-05-25T19:15:06.189Z,102160.62
2018-05-25T19:17:33.708Z,102162.85
2018-05-25T19:20:00.587Z,102164.82
2018-05-25T19:22:28.114Z,102170.81
2018-05-25T19:24:54.895Z,102178.58
2018-05-25T19:27:21.783Z,102184.97
2018-05-25T19:29:48.568Z,102180.20
2018-05-25T19:32:15.409Z,102183.03
2018-05-25T19:34:42.360Z,102185.81
2018-05-25T19:37:09.154Z,102195.71
2018-05-25T19:39:36.767Z,102193.95
2018-05-25T19:42:04.346Z,102205.45
2018-05-25T19:44:31.861Z,102203.26
2018-05-25T19:46:58.668Z,102210.59
2018-05-25T19:49:25.500Z,102212.97
2018-05-25T19:51:52.333Z,102214.89
2018-05-25T19:54:19.886Z,102217.25
2018-05-25T19:56:47.452Z,102219.42
2018-05-25T19:59:14.973Z,102222.99
2018-05-25T20:01:41.812Z,102219.20
2018-05-25T20:04:08.834Z,102217.22
2018-05-25T20:06:36.369Z,102214.62
2018-05-25T20:09:04.845Z,102222.33
2018-05-25T20:11:32.400Z,102216.95
2018-05-25T20:13:59.928Z,102223.06
2018-05-25T20:16:26.761Z,102225.41
2018-05-25T20:18:53.616Z,102226.42
2018-05-25T20:21:20.399Z,102227.53
2018-05-25T20:23:47.935Z,102229.71
2018-05-25T20:26:15.017Z,102238.80
2018-05-25T20:28:46.330Z,102233.65
2018-05-25T20:31:13.127Z,102236.16
2018-05-25T20:33:39.940Z,102232.74
2018-05-25T20:36:07.461Z,102232.05
2018-05-25T20:38:34.251Z,102232.77
2018-05-25T20:41:01.219Z,102242.25
2018-05-25T20:43:27.993Z,102240.31
2018-05-25T20:46:01.454Z,102241.30
2018-05-25T20:48:28.285Z,102233.58
2018-05-25T20:50:55.060Z,102238.40
2018-05-25T20:53:22.656Z,102235.40
2018-05-25T20:55:49.518Z,102238.88
2018-05-25T20:58:17.081Z,102246.97
2018-05-25T21:00:44.608Z,102237.06
2018-05-25T21:03:11.454Z,102245.58
2018-05-25T21:05:38.279Z,102238.75
2018-05-25T21:08:05.064Z,102250.50
2018-05-25T21:10:32.433Z,102246.34
2018-05-25T21:12:59.514Z,102255.50
2018-05-25T21:15:26.309Z,102261.45
2018-05-25T21:17:53.249Z,102258.40
2018-05-25T21:20:20.107Z,102262.38
2018-05-25T21:22:47.699Z,102267.33
2018-05-25T21:25:14.493Z,102265.17
2018-05-25T21:27:41.316Z,102268.91
2018-05-25T21:30:09.129Z,102276.77
2018-05-25T21:32:35.893Z,102283.10
2018-05-25T21:35:02.719Z,102272.13
2018-05-25T21:37:30.282Z,102283.22
2018-05-25T21:39:57.065Z,102292.28
2018-05-25T21:42:23.953Z,102289.59
2018-05-25T21:44:51.517Z,102289.83
2018-05-25T21:47:19.053Z,102292.36
2018-05-25T21:49:45.847Z,102292.02
2018-05-25T21:52:12.677Z,102290.66
2018-05-25T21:54:39.504Z,102294.69
2018-05-25T21:57:07.079Z,102292.69
2018-05-25T21:59:33.885Z,102296.77
2018-05-25T22:02:00.682Z,102302.41
2018-05-25T22:04:27.500Z,102304.55
2018-05-25T22:06:54.348Z,102301.78
2018-05-25T22:09:21.869Z,102307.34
2018-05-25T22:11:48.702Z,102311.21
2018-05-25T22:14:15.488Z,102311.39
2018-05-25T22:16:43.082Z,102314.20
2018-05-25T22:19:10.677Z,102315.91
2018-05-25T22:21:37.464Z,102320.78
2018-05-25T22:24:05.031Z,102324.03
2018-05-25T22:26:31.860Z,102318.75
2018-05-25T22:28:59.389Z,102317.84
2018-05-25T22:31:26.267Z,102324.61
2018-05-25T22:33:53.787Z,102324.98
2018-05-25T22:36:20.576Z,102322.97
2018-05-25T22:38:48.494Z,102324.02
2018-05-25T22:41:15.280Z,102325.01
2018-05-25T22:44:00.479Z,102329.34
2018-05-25T22:46:45.727Z,102326.27
2018-05-25T22:49:31.064Z,102327.63
2018-05-25T22:52:15.069Z,102321.13
2018-05-25T22:54:42.149Z,102336.95
2018-05-25T22:57:08.944Z,102330.91
2018-05-25T22:59:36.466Z,102328.20
2018-05-25T23:02:03.317Z,102334.99
2018-05-25T23:04:30.112Z,102331.36
2018-05-25T23:06:56.991Z,102332.05
2018-05-25T23:09:23.773Z,102336.66
2018-05-25T23:11:51.349Z,102338.87
2018-05-25T23:14:18.137Z,102336.41
2018-05-25T23:16:44.928Z,102332.66
2018-05-25T23:19:11.802Z,102330.06
2018-05-25T23:21:38.581Z,102332.92
2018-05-25T23:24:05.368Z,102329.16
2018-05-25T23:26:32.344Z,102330.72
2018-05-25T23:28:59.127Z,102321.91
2018-05-25T23:31:25.947Z,102319.30
2018-05-25T23:33:52.782Z,102318.69
2018-05-25T23:36:19.567Z,102310.16
2018-05-25T23:38:47.093Z,102316.16
2018-05-25T23:41:13.915Z,102312.66
2018-05-25T23:43:40.799Z,102313.66
2018-05-25T23:46:07.627Z,102307.92
2018-05-25T23:48:34.406Z,102309.17
2018-05-25T23:51:01.942Z,102314.37
2018-05-25T23:53:28.766Z,102310.51
2018-05-25T23:55:55.627Z,102308.93
2018-05-25T23:58:22.408Z,102308.06
